Time;durP1;ratioP1;P1;durP2;ratioP2;P2;SDS_P1;SDS_P2;PMS_P1;PMS_P2;Temp;Humidity;BMP_temperature;BMP_pressure;BME280_temperature;BME280_humidity;BME280_pressure;Samples;Min_cycle;Max_cycle;Signal;HPM_P1;HPM_P2
2023/10/07 00:01:22;;;;;;;8.70;5.50;;;;;;;15.08;53.34;98293.13;5033434;28;20441;-70
2023/10/07 00:03:53;;;;;;;10.87;6.03;;;;;;;14.89;53.89;98279.97;5033038;28;20896;-71
2023/10/07 00:06:19;;;;;;;9.93;4.70;;;;;;;14.85;53.44;98281.28;5023467;28;20427;-69
2023/10/07 00:08:44;;;;;;;9.73;5.23;;;;;;;14.83;53.82;98280.59;5038847;28;20441;-70
2023/10/07 00:11:11;;;;;;;8.40;5.00;;;;;;;14.80;53.91;98280.91;5029330;28;20469;-71
2023/10/07 00:13:41;;;;;;;13.20;5.57;;;;;;;14.81;53.73;98282.56;5030105;28;20271;-69
2023/10/07 00:16:06;;;;;;;10.60;5.47;;;;;;;14.83;53.64;98279.75;5028373;28;20458;-72
2023/10/07 00:18:34;;;;;;;7.80;4.80;;;;;;;14.75;53.84;98285.78;5029221;28;20462;-71
2023/10/07 00:21:02;;;;;;;8.70;5.47;;;;;;;14.82;53.77;98278.94;5029410;28;20206;-71
2023/10/07 00:23:28;;;;;;;8.60;5.10;;;;;;;14.84;53.41;98284.91;5034727;28;20429;-71
2023/10/07 00:25:55;;;;;;;6.73;4.63;;;;;;;14.77;53.41;98275.91;5035740;28;20433;-71
2023/10/07 00:28:35;;;;;;;9.03;4.40;;;;;;;14.74;53.51;98278.88;5037822;28;20199;-70
2023/10/07 00:31:03;;;;;;;8.03;5.00;;;;;;;14.77;53.49;98283.84;5027386;28;20441;-69
2023/10/07 00:33:51;;;;;;;9.97;5.23;;;;;;;14.77;53.40;98281.19;5028872;28;20915;-70
2023/10/07 00:36:33;;;;;;;8.33;4.70;;;;;;;14.70;53.51;98282.81;5026002;28;20434;-69
2023/10/07 00:39:08;;;;;;;9.53;5.27;;;;;;;14.69;53.31;98284.59;5034959;28;20561;-70
2023/10/07 00:41:39;;;;;;;9.90;5.40;;;;;;;14.71;53.07;98273.91;5037113;28;20433;-69
2023/10/07 00:44:17;;;;;;;6.77;4.13;;;;;;;14.73;52.95;98279.88;5028182;28;20521;-71
2023/10/07 00:46:48;;;;;;;8.93;4.93;;;;;;;14.64;53.31;98276.28;5006413;28;20785;-70
2023/10/07 00:49:22;;;;;;;7.07;4.57;;;;;;;14.61;53.21;98281.06;5029621;28;20443;-70
2023/10/07 00:51:49;;;;;;;9.67;4.97;;;;;;;14.58;53.51;98272.44;5032514;28;20429;-70
2023/10/07 00:54:30;;;;;;;9.73;5.80;;;;;;;14.59;53.32;98271.47;5027249;28;20442;-71
2023/10/07 00:57:10;;;;;;;7.20;5.03;;;;;;;14.57;53.32;98273.44;5038433;28;20440;-70
2023/10/07 00:59:40;;;;;;;7.87;4.77;;;;;;;14.52;53.45;98262.50;5031006;28;21027;-70
2023/10/07 01:02:09;;;;;;;8.57;5.00;;;;;;;14.47;53.29;98258.66;5037399;28;20428;-71
2023/10/07 01:04:40;;;;;;;8.20;5.03;;;;;;;14.33;53.41;98255.56;5027984;28;20436;-69
2023/10/07 01:07:19;;;;;;;9.30;4.80;;;;;;;14.29;53.88;98248.94;5028422;28;20525;-70
2023/10/07 01:09:58;;;;;;;9.10;5.30;;;;;;;14.32;54.04;98240.72;5024848;28;20499;-70
2023/10/07 01:12:25;;;;;;;12.93;5.47;;;;;;;14.35;53.72;98244.88;5025773;28;20441;-70
2023/10/07 01:14:52;;;;;;;7.70;4.43;;;;;;;14.32;54.02;98248.63;5029230;28;20915;-70
2023/10/07 01:17:23;;;;;;;8.67;5.23;;;;;;;14.36;53.65;98251.81;5032845;28;20967;-70
2023/10/07 01:19:52;;;;;;;8.10;4.87;;;;;;;14.35;53.67;98242.25;5032499;28;20466;-70
2023/10/07 01:22:21;;;;;;;9.57;5.60;;;;;;;14.42;53.35;98240.66;5031880;28;20871;-69
2023/10/07 01:24:49;;;;;;;7.63;5.20;;;;;;;14.45;53.23;98232.44;5024321;28;20514;-69
2023/10/07 01:27:21;;;;;;;10.00;6.00;;;;;;;14.41;53.08;98229.28;5026434;28;20963;-70
2023/10/07 01:29:49;;;;;;;11.67;5.40;;;;;;;14.35;53.25;98223.78;5022074;28;20435;-70
2023/10/07 01:32:17;;;;;;;9.80;4.70;;;;;;;14.28;53.74;98219.09;5036033;28;20426;-72
2023/10/07 01:34:52;;;;;;;10.60;5.40;;;;;;;14.28;53.65;98224.38;5028251;28;20461;-72
2023/10/07 01:37:21;;;;;;;8.93;5.40;;;;;;;14.23;53.54;98216.13;5027783;28;20456;-71
2023/10/07 01:39:52;;;;;;;7.50;5.13;;;;;;;14.14;53.64;98211.72;5028929;28;21184;-69
2023/10/07 01:42:35;;;;;;;8.47;4.93;;;;;;;14.21;53.54;98207.53;5031670;28;20422;-71
2023/10/07 01:45:10;;;;;;;9.50;5.13;;;;;;;14.15;53.70;98202.84;5031043;28;20993;-72
2023/10/07 01:47:35;;;;;;;9.17;5.00;;;;;;;14.08;53.67;98205.25;5023358;28;20429;-71
2023/10/07 01:50:11;;;;;;;10.37;4.83;;;;;;;14.04;54.00;98206.53;5027443;28;20970;-69
2023/10/07 01:52:37;;;;;;;9.27;5.03;;;;;;;14.02;53.92;98215.56;5028466;28;20179;-68
2023/10/07 01:55:08;;;;;;;8.93;5.83;;;;;;;14.01;53.63;98213.91;5037677;28;20434;-69
2023/10/07 01:57:34;;;;;;;9.53;5.07;;;;;;;13.91;53.88;98206.91;5038880;28;20465;-69
2023/10/07 02:00:04;;;;;;;9.07;5.30;;;;;;;13.88;54.11;98207.19;5036069;28;20446;-70
2023/10/07 02:02:30;;;;;;;7.47;4.90;;;;;;;13.87;54.29;98213.44;5034355;28;20191;-71
2023/10/07 02:04:56;;;;;;;9.10;5.07;;;;;;;13.92;54.15;98219.09;5035976;28;20426;-70
2023/10/07 02:07:22;;;;;;;10.67;5.47;;;;;;;13.88;54.09;98220.34;5028959;28;20997;-69
2023/10/07 02:09:48;;;;;;;10.90;5.33;;;;;;;13.90;53.67;98223.69;5027610;28;20249;-69
2023/10/07 02:12:18;;;;;;;7.03;4.50;;;;;;;13.90;54.06;98226.31;5027840;28;20504;-70
2023/10/07 02:14:44;;;;;;;9.17;5.10;;;;;;;13.87;53.84;98228.41;5036896;28;20188;-70
2023/10/07 02:17:11;;;;;;;8.83;5.47;;;;;;;13.91;53.78;98232.44;5026813;28;20446;-69
2023/10/07 02:19:40;;;;;;;8.17;4.97;;;;;;;13.91;53.50;98227.97;5027443;28;20524;-69
2023/10/07 02:22:13;;;;;;;10.33;5.10;;;;;;;13.82;53.82;98229.69;5027677;28;20517;-71
2023/10/07 02:24:41;;;;;;;10.67;5.37;;;;;;;13.77;54.26;98231.09;5035514;28;20438;-69
2023/10/07 02:27:19;;;;;;;9.57;5.20;;;;;;;13.79;54.18;98227.38;5027765;28;20434;-70
2023/10/07 02:29:51;;;;;;;12.73;5.30;;;;;;;13.75;53.93;98240.97;5023866;28;20817;-70
2023/10/07 02:32:19;;;;;;;10.13;4.97;;;;;;;13.76;53.98;98239.97;5008671;28;20446;-69
2023/10/07 02:34:51;;;;;;;7.03;4.90;;;;;;;13.73;54.25;98242.94;5013082;28;20430;-68
2023/10/07 02:37:36;;;;;;;8.97;5.10;;;;;;;13.68;54.74;98246.00;4978314;28;20479;-68
2023/10/07 02:40:19;;;;;;;11.90;5.87;;;;;;;13.72;54.36;98243.91;5027215;28;20557;-70
2023/10/07 02:42:46;;;;;;;9.47;5.60;;;;;;;13.67;54.30;98239.91;5031382;28;20469;-70
2023/10/07 02:47:47;;;;;;;7.73;4.90;;;;;;;13.58;54.68;98250.47;5035060;28;20453;-70
2023/10/07 02:50:13;;;;;;;10.30;5.13;;;;;;;13.64;54.29;98256.00;5028930;28;20849;-69
2023/10/07 02:52:39;;;;;;;9.70;5.20;;;;;;;13.67;54.03;98262.78;5027817;28;20428;-69
2023/10/07 02:57:45;;;;;;;9.43;5.37;;;;;;;13.59;54.22;98260.88;5029500;28;20536;-71
2023/10/07 03:00:29;;;;;;;13.13;5.70;;;;;;;13.51;54.65;98250.22;5029635;28;20477;-69
2023/10/07 03:05:45;;;;;;;9.53;5.40;;;;;;;13.48;55.10;98255.81;5026152;28;20423;-70
2023/10/07 03:08:19;;;;;;;8.50;4.97;;;;;;;13.50;54.73;98256.47;5033311;28;20453;-68
2023/10/07 03:11:03;;;;;;;7.67;4.40;;;;;;;13.51;54.79;98247.59;5030049;28;20433;-70
2023/10/07 03:13:37;;;;;;;9.80;5.50;;;;;;;13.49;54.53;98249.53;5027420;28;20565;-69
2023/10/07 03:16:09;;;;;;;9.57;5.30;;;;;;;13.44;54.06;98255.25;5027516;28;20461;-69
2023/10/07 03:18:38;;;;;;;10.07;5.30;;;;;;;13.40;55.12;98250.41;5029489;28;20504;-70
2023/10/07 03:21:10;;;;;;;8.17;4.97;;;;;;;13.47;54.93;98248.88;5031405;28;20429;-70
2023/10/07 03:23:45;;;;;;;10.13;5.20;;;;;;;13.52;54.60;98249.25;5035231;28;20532;-69
2023/10/07 03:26:17;;;;;;;9.07;5.33;;;;;;;13.50;54.67;98251.19;5033278;28;20433;-70
2023/10/07 03:28:53;;;;;;;9.87;5.30;;;;;;;13.51;54.62;98231.78;5026841;28;20450;-71
2023/10/07 03:31:20;;;;;;;8.60;5.07;;;;;;;13.49;54.59;98237.22;5025490;28;20445;-70
2023/10/07 03:33:53;;;;;;;9.07;5.47;;;;;;;13.50;54.69;98251.19;5016663;28;20437;-70
2023/10/07 03:38:57;;;;;;;8.17;4.63;;;;;;;13.51;54.42;98256.34;5029198;28;20561;-69
2023/10/07 03:41:23;;;;;;;7.90;4.60;;;;;;;13.48;54.28;98253.19;5034345;28;20863;-71
2023/10/07 03:43:50;;;;;;;11.20;4.90;;;;;;;13.49;54.38;98253.03;5035318;28;20427;-71
2023/10/07 03:46:17;;;;;;;8.80;4.97;;;;;;;13.48;54.37;98258.44;5032287;28;20559;-69
2023/10/07 03:48:53;;;;;;;10.93;4.70;;;;;;;13.47;54.80;98262.88;5034441;28;20515;-69
2023/10/07 03:51:21;;;;;;;8.20;5.17;;;;;;;13.41;54.41;98273.16;5029212;28;21278;-69
2023/10/07 03:53:48;;;;;;;10.27;5.63;;;;;;;13.40;54.68;98271.47;5042523;28;20425;-69
2023/10/07 03:56:14;;;;;;;9.90;5.30;;;;;;;13.34;54.80;98280.75;5029244;28;20422;-70
2023/10/07 03:58:41;;;;;;;8.23;5.10;;;;;;;13.35;54.88;98293.81;5029322;28;21056;-70
2023/10/07 04:01:16;;;;;;;9.87;5.37;;;;;;;13.33;55.00;98292.25;5036510;28;20184;-70
2023/10/07 04:03:50;;;;;;;10.27;5.00;;;;;;;13.22;55.03;98295.91;5036251;28;20426;-70
2023/10/07 04:06:17;;;;;;;8.30;5.00;;;;;;;13.28;55.24;98287.44;5037168;28;20430;-70
2023/10/07 04:08:52;;;;;;;8.23;5.00;;;;;;;13.20;55.04;98284.69;5038821;28;20434;-70
2023/10/07 04:11:19;;;;;;;8.77;5.40;;;;;;;13.24;54.89;98283.41;5029088;28;20422;-71
2023/10/07 04:13:46;;;;;;;10.20;5.30;;;;;;;13.26;55.12;98283.28;5029302;28;20443;-71
2023/10/07 04:16:23;;;;;;;9.80;5.47;;;;;;;13.15;55.41;98284.28;5027960;28;21157;-70
2023/10/07 04:18:53;;;;;;;8.03;5.00;;;;;;;13.20;54.77;98279.44;5038464;28;20880;-71
2023/10/07 04:21:20;;;;;;;7.67;5.17;;;;;;;13.20;54.46;98282.06;5031993;28;20447;-69
2023/10/07 04:23:46;;;;;;;13.20;5.40;;;;;;;13.24;54.38;98272.88;5041254;28;20498;-70
2023/10/07 04:26:19;;;;;;;9.30;4.97;;;;;;;13.17;55.00;98279.69;5029013;28;20518;-69
2023/10/07 04:28:48;;;;;;;8.90;4.57;;;;;;;13.16;55.21;98292.03;5030071;28;20207;-69
2023/10/07 04:31:16;;;;;;;7.87;4.70;;;;;;;13.18;55.04;98273.47;5036215;28;20437;-70
2023/10/07 04:33:48;;;;;;;12.03;5.03;;;;;;;13.18;54.60;98281.38;5028195;28;20484;-70
2023/10/07 04:36:14;;;;;;;11.70;5.60;;;;;;;13.17;54.60;98272.63;5025448;28;20480;-69
2023/10/07 04:38:53;;;;;;;7.63;4.90;;;;;;;13.13;54.80;98283.59;5032406;28;20462;-69
2023/10/07 04:46:23;;;;;;;8.27;4.97;;;;;;;13.09;55.11;98263.81;5036877;28;20532;-70
2023/10/07 04:48:56;;;;;;;13.33;5.50;;;;;;;13.06;55.31;98260.47;5027643;28;20445;-71
2023/10/07 04:54:08;;;;;;;9.80;5.10;;;;;;;13.07;54.43;98290.25;5025687;28;20430;-70
2023/10/07 04:56:35;;;;;;;13.10;5.13;;;;;;;13.02;54.76;98297.75;5038117;28;20572;-69
2023/10/07 04:59:05;;;;;;;12.83;5.63;;;;;;;12.95;55.22;98294.84;5029491;28;20219;-71
2023/10/07 05:01:31;;;;;;;9.63;5.20;;;;;;;13.00;55.13;98292.63;5035992;28;20460;-71
2023/10/07 05:04:09;;;;;;;11.77;5.73;;;;;;;13.05;54.57;98287.75;5034836;28;20465;-70
2023/10/07 05:06:37;;;;;;;9.43;5.07;;;;;;;13.03;54.83;98281.81;5031436;28;20187;-70
2023/10/07 05:09:10;;;;;;;8.87;4.87;;;;;;;13.10;55.04;98281.25;5029436;28;20520;-69
2023/10/07 05:11:49;;;;;;;9.27;5.30;;;;;;;13.04;55.06;98283.47;5034382;28;20432;-70
2023/10/07 05:14:17;;;;;;;8.53;5.13;;;;;;;12.99;55.09;98276.97;5039818;28;20794;-70
2023/10/07 05:16:46;;;;;;;11.03;5.50;;;;;;;12.96;55.30;98275.47;5026368;28;20457;-70
2023/10/07 05:19:19;;;;;;;7.53;5.20;;;;;;;12.89;55.39;98274.34;5035691;28;20499;-69
2023/10/07 05:21:59;;;;;;;10.57;4.60;;;;;;;12.97;55.17;98276.28;5025174;28;20424;-70
2023/10/07 05:24:28;;;;;;;12.73;5.63;;;;;;;12.88;55.20;98275.31;5026478;28;20929;-70
2023/10/07 05:26:59;;;;;;;10.50;5.40;;;;;;;12.90;55.09;98278.66;5032674;28;20430;-69
2023/10/07 05:29:25;;;;;;;8.00;5.43;;;;;;;12.89;55.13;98275.19;5038578;28;21007;-69
2023/10/07 05:31:51;;;;;;;11.80;5.40;;;;;;;12.86;55.43;98290.41;5028156;28;20549;-69
2023/10/07 05:34:18;;;;;;;10.73;5.60;;;;;;;12.79;55.76;98295.41;5019744;28;20459;-70
2023/10/07 05:36:44;;;;;;;10.33;5.30;;;;;;;12.75;55.97;98284.34;5024466;28;20194;-69
2023/10/07 05:39:13;;;;;;;8.33;5.00;;;;;;;12.71;55.87;98296.13;5035439;28;20822;-69
2023/10/07 05:41:41;;;;;;;9.67;5.27;;;;;;;12.81;55.84;98300.53;5029946;28;20199;-69
2023/10/07 05:44:08;;;;;;;9.10;5.43;;;;;;;12.78;55.66;98308.72;5029258;28;20434;-69
2023/10/07 05:46:33;;;;;;;10.07;5.50;;;;;;;12.82;55.31;98300.38;5026874;28;20484;-69
2023/10/07 05:48:59;;;;;;;10.37;5.60;;;;;;;12.87;55.32;98305.22;5041288;28;20461;-70
2023/10/07 05:51:25;;;;;;;10.23;5.40;;;;;;;12.80;55.52;98298.88;5030540;28;20234;-69
2023/10/07 05:53:51;;;;;;;8.50;5.50;;;;;;;12.77;55.70;98310.53;5036735;28;20233;-69
2023/10/07 05:56:17;;;;;;;10.20;5.20;;;;;;;12.78;55.40;98316.59;5028822;28;20430;-70
2023/10/07 05:58:44;;;;;;;14.60;5.60;;;;;;;12.70;55.64;98307.63;5028567;28;20234;-69
2023/10/07 06:01:11;;;;;;;8.60;5.70;;;;;;;12.67;55.62;98300.00;5024042;28;20447;-68
2023/10/07 06:03:37;;;;;;;8.40;4.70;;;;;;;12.82;56.04;98294.31;5035811;28;20799;-70
2023/10/07 06:06:04;;;;;;;10.73;5.40;;;;;;;13.01;55.47;98299.53;5027694;28;20442;-70
2023/10/07 06:08:30;;;;;;;8.53;5.30;;;;;;;13.09;55.57;98292.75;5027992;28;20218;-70
2023/10/07 06:10:56;;;;;;;9.13;5.33;;;;;;;13.18;55.32;98294.53;5029513;28;20991;-70
2023/10/07 06:13:27;;;;;;;10.47;5.70;;;;;;;13.29;55.40;98293.53;5037392;28;20196;-69
2023/10/07 06:15:56;;;;;;;12.30;7.37;;;;;;;13.47;55.87;98304.19;5032409;28;20836;-68
2023/10/07 06:18:31;;;;;;;17.53;7.57;;;;;;;13.63;55.79;98308.84;5024083;28;20877;-68
2023/10/07 06:21:11;;;;;;;15.47;9.90;;;;;;;13.79;55.87;98310.84;5027687;28;20436;-71
2023/10/07 06:23:36;;;;;;;15.80;7.87;;;;;;;13.79;55.38;98297.66;5026231;28;20425;-70
2023/10/07 06:26:09;;;;;;;12.80;7.70;;;;;;;13.81;55.45;98311.53;5028082;28;20427;-70
2023/10/07 06:28:35;;;;;;;17.50;9.17;;;;;;;13.86;55.00;98308.44;5035618;28;20184;-70
2023/10/07 06:31:11;;;;;;;13.60;6.97;;;;;;;13.82;55.31;98314.00;5034395;28;20456;-70
2023/10/07 06:33:45;;;;;;;11.87;7.20;;;;;;;14.01;55.85;98308.78;5035943;28;20445;-71
2023/10/07 06:36:14;;;;;;;11.23;6.37;;;;;;;14.06;55.27;98306.53;5028486;28;20437;-70
2023/10/07 06:38:52;;;;;;;10.13;5.43;;;;;;;14.13;55.02;98290.00;5034905;28;20462;-70
2023/10/07 06:41:18;;;;;;;13.93;6.00;;;;;;;14.24;54.96;98286.28;5029985;28;20891;-71
2023/10/07 06:43:50;;;;;;;10.90;5.73;;;;;;;14.39;54.75;98291.06;5026866;28;20545;-71
2023/10/07 06:46:21;;;;;;;10.30;5.77;;;;;;;14.60;54.85;98285.47;5028092;28;20441;-71
2023/10/07 06:48:50;;;;;;;8.20;5.80;;;;;;;14.81;54.65;98297.53;5011076;28;20476;-71
2023/10/07 06:51:16;;;;;;;8.40;4.90;;;;;;;14.94;53.76;98294.53;5034365;28;20524;-70
2023/10/07 06:53:45;;;;;;;10.67;6.17;;;;;;;15.05;53.96;98310.97;5030492;28;20513;-70
2023/10/07 06:56:24;;;;;;;12.40;6.47;;;;;;;15.24;54.10;98324.13;5038772;28;20293;-70
2023/10/07 06:58:54;;;;;;;10.77;6.90;;;;;;;15.47;53.60;98335.81;4994177;28;20970;-70
2023/10/07 07:04:11;;;;;;;8.90;5.20;;;;;;;15.75;52.55;98340.09;5042906;28;20992;-70
2023/10/07 07:06:43;;;;;;;11.10;6.53;;;;;;;15.81;52.06;98337.66;5027194;28;20430;-68
2023/10/07 07:11:58;;;;;;;10.20;4.97;;;;;;;16.05;51.76;98359.91;5022020;28;20429;-69
2023/10/07 07:14:28;;;;;;;11.00;6.50;;;;;;;16.20;52.00;98356.66;5026821;28;20430;-68
2023/10/07 07:16:56;;;;;;;10.27;6.03;;;;;;;16.31;51.78;98347.63;5014566;28;20460;-69
2023/10/07 07:19:23;;;;;;;9.63;5.40;;;;;;;16.38;51.34;98343.31;5025199;28;20470;-70
2023/10/07 07:21:49;;;;;;;9.63;5.50;;;;;;;16.31;50.29;98350.25;5029142;28;20426;-70
2023/10/07 07:24:20;;;;;;;12.30;4.73;;;;;;;16.37;49.97;98331.94;5028383;28;20441;-70
2023/10/07 07:26:52;;;;;;;12.70;5.30;;;;;;;16.36;49.99;98340.84;5021451;28;20418;-70
2023/10/07 07:29:23;;;;;;;11.40;5.10;;;;;;;16.40;50.38;98341.34;5019540;28;20451;-69
2023/10/07 07:31:49;;;;;;;7.37;5.30;;;;;;;16.47;50.70;98357.41;5024515;28;20434;-69
2023/10/07 07:34:26;;;;;;;10.67;5.00;;;;;;;16.52;50.52;98347.16;5021751;28;20830;-69
2023/10/07 07:37:03;;;;;;;11.80;5.50;;;;;;;16.59;51.04;98346.34;5032173;28;20434;-69
2023/10/07 07:39:32;;;;;;;10.70;6.30;;;;;;;16.72;51.90;98351.16;5029626;28;20462;-71
2023/10/07 07:42:15;;;;;;;10.60;5.00;;;;;;;16.84;51.67;98335.78;5028676;28;20537;-69
2023/10/07 07:44:56;;;;;;;8.90;5.47;;;;;;;16.99;51.83;98336.00;5026912;28;20983;-70
2023/10/07 07:47:21;;;;;;;9.13;5.47;;;;;;;17.19;51.94;98340.94;5022137;28;20804;-70
2023/10/07 07:49:47;;;;;;;12.67;5.67;;;;;;;17.41;51.33;98344.72;5025132;28;20453;-70
2023/10/07 07:52:15;;;;;;;11.90;5.07;;;;;;;17.63;51.11;98339.69;5028067;28;20188;-70
2023/10/07 07:54:41;;;;;;;10.70;4.30;;;;;;;17.83;49.81;98329.53;5035959;28;20494;-69
2023/10/07 07:57:12;;;;;;;13.27;5.10;;;;;;;18.11;48.97;98329.13;5032488;28;20510;-70
2023/10/07 07:59:38;;;;;;;8.87;5.70;;;;;;;18.45;48.54;98329.75;5035570;28;20461;-70
2023/10/07 08:02:17;;;;;;;8.97;5.47;;;;;;;18.82;47.80;98341.47;5030943;28;20426;-70
2023/10/07 08:07:27;;;;;;;9.87;4.63;;;;;;;19.48;44.66;98336.41;5034722;28;20700;-70
2023/10/07 08:09:58;;;;;;;7.93;4.23;;;;;;;19.91;43.07;98325.16;5030665;28;20446;-70
2023/10/07 08:12:28;;;;;;;10.73;4.53;;;;;;;20.34;42.92;98331.59;5038095;28;20446;-69
2023/10/07 08:14:58;;;;;;;6.20;4.40;;;;;;;20.76;42.02;98321.19;5040559;28;20426;-70
2023/10/07 08:17:27;;;;;;;8.77;4.23;;;;;;;20.95;39.89;98333.84;5034594;28;20537;-70
2023/10/07 08:19:53;;;;;;;7.40;4.20;;;;;;;21.06;40.22;98343.19;5034017;28;20435;-70
2023/10/07 08:22:20;;;;;;;8.10;4.87;;;;;;;21.19;39.86;98347.78;5030627;28;20993;-70
2023/10/07 08:24:46;;;;;;;10.10;4.63;;;;;;;21.29;39.97;98342.13;5031392;28;20931;-70
2023/10/07 08:29:56;;;;;;;7.70;4.57;;;;;;;21.55;39.63;98344.13;5029756;28;20212;-71
2023/10/07 08:32:35;;;;;;;7.30;3.40;;;;;;;21.76;38.75;98337.13;5030702;28;20442;-70
2023/10/07 08:35:03;;;;;;;6.13;3.87;;;;;;;22.12;38.81;98322.72;5029407;28;20835;-70
2023/10/07 08:37:32;;;;;;;6.70;4.30;;;;;;;22.57;38.11;98332.09;5029695;28;20460;-70
2023/10/07 08:40:13;;;;;;;8.07;4.47;;;;;;;23.05;37.39;98325.78;5037627;28;20474;-71
2023/10/07 08:42:45;;;;;;;9.63;4.20;;;;;;;23.30;34.49;98321.47;5035678;28;20465;-71
2023/10/07 08:45:14;;;;;;;7.37;4.30;;;;;;;23.20;33.11;98320.25;5012536;28;20469;-72
2023/10/07 08:47:49;;;;;;;6.80;3.57;;;;;;;23.26;33.61;98311.41;5029516;28;20434;-71
2023/10/07 08:50:19;;;;;;;5.97;3.80;;;;;;;23.33;33.97;98309.53;5012938;28;20456;-72
2023/10/07 08:52:44;;;;;;;10.27;3.90;;;;;;;23.33;34.18;98314.88;5029766;28;20427;-71
2023/10/07 08:55:10;;;;;;;7.03;3.70;;;;;;;23.36;32.36;98325.19;5037731;28;20488;-72
2023/10/07 08:57:36;;;;;;;6.50;3.47;;;;;;;23.39;31.18;98318.56;5030563;28;20184;-69
2023/10/07 09:00:11;;;;;;;10.50;3.50;;;;;;;23.38;30.69;98328.47;5038989;28;20243;-72
2023/10/07 09:02:39;;;;;;;4.00;2.73;;;;;;;23.38;30.10;98323.13;5038342;28;20416;-71
2023/10/07 09:05:16;;;;;;;4.50;3.03;;;;;;;23.43;30.53;98326.00;5025000;28;20425;-71
2023/10/07 09:07:48;;;;;;;4.10;2.83;;;;;;;23.44;30.12;98332.16;5031820;28;20786;-70
2023/10/07 09:10:17;;;;;;;6.83;3.43;;;;;;;23.34;30.41;98315.72;5029455;28;20454;-69
2023/10/07 09:12:46;;;;;;;6.67;3.67;;;;;;;23.38;30.79;98327.63;5031082;28;20436;-70
2023/10/07 09:15:29;;;;;;;6.53;3.20;;;;;;;23.40;30.98;98321.06;5037670;28;21118;-70
2023/10/07 09:18:05;;;;;;;6.50;3.27;;;;;;;23.43;31.02;98326.00;5042111;28;20990;-71
2023/10/07 09:20:31;;;;;;;9.77;3.80;;;;;;;23.24;32.73;98324.16;5032802;28;20867;-69
2023/10/07 09:23:14;;;;;;;6.00;3.60;;;;;;;23.22;33.09;98323.53;5039713;28;20524;-71
2023/10/07 09:25:50;;;;;;;9.23;3.47;;;;;;;23.33;33.10;98330.94;5037106;28;20433;-68
2023/10/07 09:28:19;;;;;;;5.73;3.30;;;;;;;23.34;32.29;98321.88;5029069;28;20426;-70
2023/10/07 09:30:45;;;;;;;4.50;3.50;;;;;;;23.35;31.64;98328.88;5043637;28;20477;-70
2023/10/07 09:33:21;;;;;;;4.80;3.57;;;;;;;23.25;31.58;98326.63;5029348;28;20839;-70
2023/10/07 09:35:49;;;;;;;16.50;3.97;;;;;;;23.23;32.41;98336.72;5034329;28;20457;-70
2023/10/07 09:38:33;;;;;;;6.00;3.30;;;;;;;23.17;31.72;98337.50;5032226;28;20469;-69
2023/10/07 09:43:49;;;;;;;3.57;2.57;;;;;;;23.07;31.33;98351.28;5038573;28;20433;-69
2023/10/07 09:46:24;;;;;;;5.87;3.40;;;;;;;23.02;31.46;98345.72;5031246;28;20422;-70
2023/10/07 09:48:59;;;;;;;7.40;3.20;;;;;;;22.97;31.83;98340.16;5039942;28;20414;-72
2023/10/07 09:51:44;;;;;;;6.70;3.40;;;;;;;22.89;31.55;98335.84;5029919;28;20430;-69
2023/10/07 09:54:29;;;;;;;7.47;3.90;;;;;;;22.82;31.98;98343.84;5026111;28;20933;-69
2023/10/07 09:57:29;;;;;;;7.30;3.80;;;;;;;22.76;31.96;98347.34;5035742;28;20437;-70
2023/10/07 10:03:20;;;;;;;12.73;4.63;;;;;;;22.63;32.36;98348.13;5028093;28;20457;-71
2023/10/07 10:06:03;;;;;;;8.50;3.80;;;;;;;22.67;33.02;98353.91;5034847;28;20445;-69
2023/10/07 10:08:59;;;;;;;5.07;3.10;;;;;;;22.73;32.82;98361.13;5040188;28;20809;-70
2023/10/07 10:11:44;;;;;;;4.60;2.90;;;;;;;22.77;32.57;98358.84;5033892;28;20422;-71
2023/10/07 10:14:19;;;;;;;6.60;3.10;;;;;;;22.80;32.12;98369.97;5042322;28;20430;-69
2023/10/07 10:16:52;;;;;;;6.37;3.50;;;;;;;22.81;31.99;98360.09;5025740;28;20480;-71
2023/10/07 10:19:26;;;;;;;8.43;3.70;;;;;;;22.79;32.10;98371.00;5034453;28;21011;-71
2023/10/07 10:21:52;;;;;;;6.40;3.23;;;;;;;22.77;31.26;98367.72;5027560;28;20967;-71
2023/10/07 10:24:23;;;;;;;6.80;3.30;;;;;;;22.68;31.58;98363.59;5034350;28;20426;-71
2023/10/07 10:26:50;;;;;;;12.33;3.60;;;;;;;22.72;31.12;98362.13;5038338;28;20564;-71
2023/10/07 10:29:25;;;;;;;5.57;2.90;;;;;;;22.75;30.90;98372.44;5027048;28;20477;-70
2023/10/07 10:31:51;;;;;;;6.67;3.57;;;;;;;22.80;31.00;98372.66;5035498;28;20571;-71
2023/10/07 10:34:17;;;;;;;5.40;3.20;;;;;;;22.89;31.51;98348.41;5039119;28;20436;-72
2023/10/07 10:36:48;;;;;;;6.67;4.00;;;;;;;22.94;31.88;98348.59;5038595;28;20426;-70
2023/10/07 10:39:25;;;;;;;4.13;2.90;;;;;;;22.99;31.95;98355.00;5018696;28;20676;-71
2023/10/07 10:41:55;;;;;;;6.53;3.13;;;;;;;23.00;30.86;98353.94;5009233;28;20469;-70
2023/10/07 10:44:21;;;;;;;6.43;3.23;;;;;;;23.07;30.84;98343.25;5034186;28;20434;-70
2023/10/07 10:46:48;;;;;;;6.63;2.97;;;;;;;23.33;30.26;98344.31;5016859;28;20438;-69
2023/10/07 10:49:18;;;;;;;7.80;3.13;;;;;;;23.47;30.47;98337.91;5030664;28;20445;-71
2023/10/07 10:51:54;;;;;;;4.57;3.17;;;;;;;23.59;30.71;98330.09;5032316;28;20429;-69
2023/10/07 10:54:22;;;;;;;5.53;3.27;;;;;;;23.80;30.27;98333.53;5026267;28;20430;-70
2023/10/07 10:56:50;;;;;;;5.87;3.20;;;;;;;23.95;29.60;98343.97;5017917;28;20428;-70
2023/10/07 10:59:17;;;;;;;5.53;3.20;;;;;;;24.04;29.89;98340.06;5017039;28;20476;-69
2023/10/07 11:01:44;;;;;;;4.73;3.40;;;;;;;24.20;30.63;98336.06;5023829;28;20437;-71
2023/10/07 11:04:13;;;;;;;8.73;3.27;;;;;;;24.31;29.98;98326.56;5025149;28;20422;-70
2023/10/07 11:06:41;;;;;;;5.77;3.20;;;;;;;24.33;29.79;98326.34;5020403;28;20449;-69
2023/10/07 11:09:09;;;;;;;3.80;2.90;;;;;;;24.44;29.80;98322.97;5022008;28;20447;-71
2023/10/07 11:11:35;;;;;;;10.10;3.00;;;;;;;24.41;29.40;98325.25;5022118;28;20438;-70
2023/10/07 11:14:13;;;;;;;6.10;3.10;;;;;;;24.40;29.70;98313.72;5035904;28;20464;-71
2023/10/07 11:16:48;;;;;;;6.17;3.50;;;;;;;24.36;29.87;98318.69;5028796;28;20426;-69
2023/10/07 11:19:15;;;;;;;6.20;3.40;;;;;;;24.30;29.53;98313.38;5024970;28;20825;-69
2023/10/07 11:21:45;;;;;;;5.07;2.97;;;;;;;24.29;29.34;98322.44;5024507;28;20442;-69
2023/10/07 11:24:34;;;;;;;6.67;3.30;;;;;;;24.21;29.98;98315.47;5026909;28;20453;-71
2023/10/07 11:27:02;;;;;;;6.73;3.30;;;;;;;24.16;30.16;98310.75;5034182;28;20922;-71
2023/10/07 11:29:30;;;;;;;6.13;3.00;;;;;;;24.07;29.82;98309.38;5030288;28;20453;-69
2023/10/07 11:32:03;;;;;;;6.87;3.50;;;;;;;24.09;30.01;98296.59;5025772;28;20429;-68
2023/10/07 11:34:32;;;;;;;7.27;3.50;;;;;;;24.13;30.47;98313.03;5029439;28;20963;-72
2023/10/07 11:37:14;;;;;;;6.70;3.33;;;;;;;23.99;30.13;98302.38;5036720;28;20446;-71
2023/10/07 11:39:45;;;;;;;7.77;3.10;;;;;;;23.96;30.22;98299.31;5028908;28;20477;-70
2023/10/07 11:42:18;;;;;;;6.37;2.87;;;;;;;23.89;30.85;98285.94;5036221;28;20474;-71
2023/10/07 11:44:54;;;;;;;5.20;2.80;;;;;;;23.90;30.74;98296.41;5033738;28;20437;-70
2023/10/07 11:47:21;;;;;;;3.97;2.97;;;;;;;23.88;30.90;98295.81;5023119;28;20430;-70
2023/10/07 11:49:46;;;;;;;6.97;3.40;;;;;;;23.89;31.27;98296.63;5033116;28;20449;-70
2023/10/07 11:52:13;;;;;;;7.30;3.70;;;;;;;23.77;31.27;98299.97;5032781;28;20970;-70
2023/10/07 11:54:39;;;;;;;7.40;3.83;;;;;;;23.74;31.37;98303.06;5036464;28;20562;-70
2023/10/07 11:57:05;;;;;;;8.67;3.57;;;;;;;23.76;31.42;98297.50;5030170;28;20865;-71
2023/10/07 11:59:35;;;;;;;6.33;3.60;;;;;;;23.77;31.40;98294.63;5030615;28;20492;-69
2023/10/07 12:02:01;;;;;;;9.43;3.50;;;;;;;23.77;31.71;98297.31;5028743;28;20430;-71
2023/10/07 12:04:27;;;;;;;5.50;3.60;;;;;;;23.81;31.46;98304.91;5030802;28;20492;-71
2023/10/07 12:06:56;;;;;;;5.07;3.20;;;;;;;23.85;31.40;98301.59;5035017;28;20214;-68
2023/10/07 12:09:22;;;;;;;6.07;3.37;;;;;;;23.92;31.63;98299.72;5022295;28;20298;-69
2023/10/07 12:11:53;;;;;;;6.20;3.50;;;;;;;23.96;31.76;98302.81;5031080;28;20538;-70
2023/10/07 12:14:20;;;;;;;4.37;3.50;;;;;;;23.97;32.21;98304.44;5042722;28;20426;-69
2023/10/07 12:16:46;;;;;;;7.43;3.90;;;;;;;23.99;32.25;98312.28;5036530;28;20422;-70
2023/10/07 12:19:11;;;;;;;5.93;3.40;;;;;;;24.00;32.57;98308.59;5030918;28;21005;-70
2023/10/07 12:21:39;;;;;;;4.50;3.30;;;;;;;23.98;32.21;98316.81;5031102;28;20187;-70
2023/10/07 12:24:06;;;;;;;4.40;3.27;;;;;;;23.99;32.32;98323.81;5042100;28;20191;-69